createdAt,value
2018-07-08T00:01:18.112Z,15.30
2018-07-08T00:03:48.036Z,15.30
2018-07-08T00:06:17.961Z,15.40
2018-07-08T00:08:48.212Z,15.30
2018-07-08T00:11:18.142Z,15.30
2018-07-08T00:13:48.091Z,15.30
2018-07-08T00:16:18.037Z,15.30
2018-07-08T00:18:48.357Z,15.30
2018-07-08T00:21:18.321Z,15.20
2018-07-08T00:23:48.285Z,15.20
2018-07-08T00:26:18.225Z,15.20
2018-07-08T00:28:48.431Z,15.20
2018-07-08T00:31:18.654Z,15.20
2018-07-08T00:33:48.638Z,15.20
2018-07-08T00:36:18.577Z,15.10
2018-07-08T00:38:49.038Z,15.10
2018-07-08T00:41:18.966Z,15.10
2018-07-08T00:43:48.894Z,15.10
2018-07-08T00:46:18.858Z,15.10
2018-07-08T00:48:49.122Z,15.00
2018-07-08T00:51:19.051Z,14.90
2018-07-08T00:53:48.982Z,14.90
2018-07-08T00:56:18.907Z,14.90
2018-07-08T00:58:49.638Z,14.90
2018-07-08T01:01:19.876Z,14.80
2018-07-08T01:03:49.802Z,14.80
2018-07-08T01:06:19.730Z,14.80
2018-07-08T01:08:49.752Z,14.80
2018-07-08T01:11:19.923Z,14.80
2018-07-08T01:13:49.851Z,14.80
2018-07-08T01:16:19.782Z,14.70
2018-07-08T01:18:49.730Z,14.80
2018-07-08T01:21:19.982Z,14.70
2018-07-08T01:23:49.915Z,14.70
2018-07-08T01:26:19.855Z,14.70
2018-07-08T01:28:49.811Z,14.60
2018-07-08T01:31:20.047Z,14.70
2018-07-08T01:33:50.029Z,14.70
2018-07-08T01:36:19.951Z,14.60
2018-07-08T01:38:49.863Z,14.60
2018-07-08T01:41:20.113Z,14.60
2018-07-08T01:43:50.042Z,14.60
2018-07-08T01:46:19.967Z,14.60
2018-07-08T01:48:49.946Z,14.50
2018-07-08T01:51:20.506Z,14.50
2018-07-08T01:53:50.419Z,14.50
2018-07-08T01:56:20.334Z,14.40
2018-07-08T01:58:50.269Z,14.40
2018-07-08T02:01:20.308Z,14.40
2018-07-08T02:03:50.702Z,14.30
2018-07-08T02:06:20.642Z,14.30
2018-07-08T02:08:50.565Z,14.20
2018-07-08T02:11:21.122Z,14.20
2018-07-08T02:13:52.103Z,14.20
2018-07-08T02:16:22.522Z,14.10
2018-07-08T02:18:52.610Z,14.10
2018-07-08T02:21:22.795Z,14.10
2018-07-08T02:23:52.718Z,14.10
2018-07-08T02:26:22.653Z,14.10
2018-07-08T02:28:53.034Z,14.00
2018-07-08T02:31:22.990Z,14.00
2018-07-08T02:33:53.090Z,14.00
2018-07-08T02:36:22.983Z,13.90
2018-07-08T02:38:52.910Z,13.90
2018-07-08T02:41:22.963Z,13.80
2018-07-08T02:43:53.239Z,13.80
2018-07-08T02:46:23.223Z,13.80
2018-07-08T02:48:53.351Z,13.70
2018-07-08T02:51:23.306Z,13.70
2018-07-08T02:53:53.235Z,13.60
2018-07-08T02:56:23.452Z,13.60
2018-07-08T02:58:53.391Z,13.50
2018-07-08T03:01:23.995Z,13.60
2018-07-08T03:03:53.918Z,13.50
2018-07-08T03:06:23.875Z,13.50
2018-07-08T03:08:53.824Z,13.50
2018-07-08T03:11:23.747Z,13.50
2018-07-08T03:13:53.854Z,13.50
2018-07-08T03:18:53.355Z,13.40
2018-07-08T03:21:23.292Z,13.40
2018-07-08T03:23:53.215Z,13.40
2018-07-08T03:26:23.306Z,13.40
2018-07-08T03:28:53.277Z,13.40
2018-07-08T03:31:23.195Z,13.50
2018-07-08T03:33:53.130Z,13.40
2018-07-08T03:36:23.055Z,13.40
2018-07-08T03:38:53.002Z,13.40
2018-07-08T03:41:23.181Z,13.40
2018-07-08T03:43:53.121Z,13.40
2018-07-08T03:46:23.139Z,13.50
2018-07-08T03:48:53.070Z,13.50
2018-07-08T03:51:23.390Z,13.60
2018-07-08T03:53:53.326Z,13.60
2018-07-08T03:56:23.267Z,13.60
2018-07-08T03:58:53.667Z,13.70
2018-07-08T04:01:24.102Z,13.70
2018-07-08T04:03:54.071Z,13.70
2018-07-08T04:06:24.003Z,13.80
2018-07-08T04:08:53.934Z,13.80
2018-07-08T04:11:24.000Z,13.80
2018-07-08T04:13:53.934Z,13.80
2018-07-08T04:16:23.863Z,13.90
2018-07-08T04:18:53.878Z,13.90
2018-07-08T04:21:24.138Z,13.90
2018-07-08T04:23:54.099Z,13.90
2018-07-08T04:26:24.035Z,13.90
2018-07-08T04:28:54.294Z,13.90
2018-07-08T04:31:24.326Z,13.90
2018-07-08T04:33:54.252Z,13.90
2018-07-08T04:36:24.177Z,13.90
2018-07-08T04:38:54.103Z,13.90
2018-07-08T04:41:24.274Z,13.90
2018-07-08T04:43:54.408Z,13.90
2018-07-08T04:46:24.339Z,13.80
2018-07-08T04:48:54.257Z,13.90
2018-07-08T04:51:24.499Z,13.80
2018-07-08T04:53:54.419Z,13.90
2018-07-08T04:56:24.336Z,13.90
2018-07-08T04:58:54.283Z,13.90
2018-07-08T05:01:24.461Z,14.00
2018-07-08T05:03:54.389Z,14.00
2018-07-08T05:06:24.340Z,14.00
2018-07-08T05:08:54.255Z,14.10
2018-07-08T05:11:24.599Z,14.10
2018-07-08T05:13:54.539Z,14.10
2018-07-08T05:16:24.467Z,14.20
2018-07-08T05:18:54.395Z,14.20
2018-07-08T05:21:24.450Z,14.30
2018-07-08T05:23:54.488Z,14.30
2018-07-08T05:26:24.407Z,14.40
2018-07-08T05:28:54.650Z,14.50
2018-07-08T05:31:24.895Z,14.60
2018-07-08T05:33:54.822Z,14.60
2018-07-08T05:36:24.762Z,14.70
2018-07-08T05:38:54.695Z,14.80
2018-07-08T05:41:24.929Z,14.90
2018-07-08T05:43:54.874Z,15.00
2018-07-08T05:46:24.851Z,15.10
2018-07-08T05:48:54.778Z,15.20
2018-07-08T05:51:25.055Z,15.30
2018-07-08T05:53:54.994Z,15.40
2018-07-08T05:56:24.911Z,15.60
2018-07-08T05:58:55.004Z,15.70
2018-07-08T06:01:25.914Z,15.90
2018-07-08T06:03:55.897Z,16.10
2018-07-08T06:06:25.819Z,16.20
2018-07-08T06:08:55.757Z,16.40
2018-07-08T06:11:26.383Z,16.50
2018-07-08T06:13:56.327Z,16.70
2018-07-08T06:16:26.304Z,16.80
2018-07-08T06:18:56.245Z,17.00
2018-07-08T06:21:26.438Z,17.10
2018-07-08T06:23:56.366Z,17.20
2018-07-08T06:28:55.898Z,17.30
2018-07-08T06:31:26.072Z,17.60
2018-07-08T06:33:56.159Z,17.50
2018-07-08T06:36:26.147Z,17.70
2018-07-08T06:38:56.075Z,17.80
2018-07-08T06:41:26.286Z,18.00
2018-07-08T06:43:56.235Z,18.10
2018-07-08T06:46:26.171Z,18.10
2018-07-08T06:48:56.091Z,18.30
2018-07-08T06:51:26.433Z,18.40
2018-07-08T06:53:56.362Z,18.60
2018-07-08T06:56:26.304Z,18.80
2018-07-08T06:58:56.286Z,19.20
2018-07-08T07:01:26.411Z,19.60
2018-07-08T07:03:56.331Z,20.00
2018-07-08T07:06:26.268Z,20.50
2018-07-08T07:08:56.200Z,20.90
2018-07-08T07:11:26.489Z,21.70
2018-07-08T07:13:56.422Z,21.90
2018-07-08T07:16:26.365Z,22.10
2018-07-08T07:18:56.277Z,22.40
2018-07-08T07:21:26.670Z,22.80
2018-07-08T07:23:56.590Z,23.00
2018-07-08T07:26:26.588Z,23.30
2018-07-08T07:28:56.515Z,23.40
2018-07-08T07:31:26.647Z,23.50
2018-07-08T07:33:56.595Z,23.60
2018-07-08T07:36:26.554Z,23.90
2018-07-08T07:38:56.466Z,23.80
2018-07-08T07:41:26.870Z,24.20
2018-07-08T07:43:56.803Z,24.30
2018-07-08T07:46:26.754Z,24.70
2018-07-08T07:48:56.898Z,24.70
2018-07-08T07:51:27.180Z,24.60
2018-07-08T07:53:57.141Z,25.20
2018-07-08T07:56:27.078Z,25.00
2018-07-08T07:58:57.104Z,25.10
2018-07-08T08:01:27.208Z,25.90
2018-07-08T08:03:57.122Z,25.50
2018-07-08T08:06:27.082Z,25.30
2018-07-08T08:08:57.008Z,25.40
2018-07-08T08:11:27.160Z,25.40
2018-07-08T08:14:01.778Z,25.10
2018-07-08T08:16:31.715Z,25.30
2018-07-08T08:19:02.607Z,25.20
2018-07-08T08:21:32.939Z,25.10
2018-07-08T08:24:02.855Z,25.00
2018-07-08T08:26:32.879Z,25.10
2018-07-08T08:29:02.704Z,25.00
2018-07-08T08:31:32.649Z,25.00
2018-07-08T08:35:10.334Z,24.60
2018-07-08T08:37:43.382Z,24.30
2018-07-08T08:40:14.123Z,23.80
2018-07-08T08:42:44.066Z,23.80
2018-07-08T08:45:15.146Z,23.80
2018-07-08T08:47:45.091Z,23.80
2018-07-08T08:50:15.366Z,23.70
2018-07-08T08:52:45.298Z,23.80
2018-07-08T08:55:15.326Z,23.90
2018-07-08T08:57:45.270Z,23.90
2018-07-08T09:00:16.942Z,24.10
2018-07-08T09:02:46.951Z,24.10
2018-07-08T09:05:16.887Z,24.00
2018-07-08T09:07:46.832Z,24.10
2018-07-08T09:10:16.764Z,24.30
2018-07-08T09:12:46.706Z,24.30
2018-07-08T09:15:16.627Z,24.40
2018-07-08T09:17:46.558Z,24.60
2018-07-08T09:20:16.571Z,24.60
2018-07-08T09:22:46.541Z,24.60
2018-07-08T09:25:16.462Z,24.70
2018-07-08T09:27:46.414Z,24.90
2018-07-08T09:30:16.375Z,25.20
2018-07-08T09:32:46.309Z,25.30
2018-07-08T09:35:16.235Z,25.00
2018-07-08T09:37:46.282Z,24.90
2018-07-08T09:40:16.230Z,25.00
2018-07-08T09:42:46.166Z,25.20
2018-07-08T09:45:16.099Z,25.20
2018-07-08T09:47:46.143Z,25.30
2018-07-08T09:50:16.058Z,25.10
2018-07-08T09:52:46.001Z,25.20
2018-07-08T09:55:15.913Z,25.30
2018-07-08T10:00:15.447Z,25.30
2018-07-08T10:02:45.383Z,25.50
2018-07-08T10:05:15.306Z,25.60
2018-07-08T10:07:45.258Z,25.60
2018-07-08T10:10:15.209Z,25.50
2018-07-08T10:12:45.146Z,25.70
2018-07-08T10:15:15.067Z,25.90
2018-07-08T10:17:45.061Z,25.90
2018-07-08T10:20:14.910Z,25.90
2018-07-08T10:22:44.846Z,26.00
2018-07-08T10:25:14.819Z,26.00
2018-07-08T10:28:15.003Z,26.10
2018-07-08T10:30:45.147Z,26.50
2018-07-08T10:33:15.084Z,26.30
2018-07-08T10:35:58.942Z,26.30
2018-07-08T10:38:28.898Z,26.50
2018-07-08T10:40:58.843Z,26.30
2018-07-08T10:43:28.926Z,26.30
2018-07-08T10:45:58.736Z,26.40
2018-07-08T10:48:28.719Z,26.40
2018-07-08T10:50:58.648Z,26.20
2018-07-08T10:53:28.582Z,26.10
2018-07-08T10:55:58.508Z,26.10
2018-07-08T10:58:28.454Z,26.30
2018-07-08T11:00:58.898Z,26.30
2018-07-08T11:03:28.882Z,26.40
2018-07-08T11:08:28.382Z,26.50
2018-07-08T11:10:58.347Z,26.80
2018-07-08T11:13:28.427Z,26.50
2018-07-08T11:15:58.626Z,26.90
2018-07-08T11:18:28.563Z,26.80
2018-07-08T11:20:58.560Z,27.00
2018-07-08T11:23:28.436Z,27.10
2018-07-08T11:25:58.354Z,27.20
2018-07-08T11:28:28.315Z,26.80
2018-07-08T11:30:58.214Z,27.00
2018-07-08T11:33:28.144Z,27.10
2018-07-08T11:35:58.074Z,26.90
2018-07-08T11:38:28.011Z,26.80
2018-07-08T11:40:57.943Z,27.00
2018-07-08T11:43:27.892Z,27.10
2018-07-08T11:45:57.814Z,27.40
2018-07-08T11:48:27.794Z,27.60
2018-07-08T11:50:57.726Z,27.70
2018-07-08T11:53:27.659Z,27.60
2018-07-08T11:55:57.582Z,27.70
2018-07-08T11:58:27.514Z,27.70
2018-07-08T12:00:57.443Z,27.80
2018-07-08T12:03:28.454Z,27.70
2018-07-08T12:05:58.379Z,27.60
2018-07-08T12:08:28.318Z,27.80
2018-07-08T12:10:58.255Z,27.90
2018-07-08T12:13:28.198Z,28.30
2018-07-08T12:15:58.123Z,28.30
2018-07-08T12:18:28.059Z,28.30
2018-07-08T12:20:57.996Z,28.20
2018-07-08T12:23:27.935Z,28.10
2018-07-08T12:25:57.917Z,28.20
2018-07-08T12:28:27.863Z,28.10
2018-07-08T12:30:57.792Z,28.30
2018-07-08T12:33:27.765Z,28.30
2018-07-08T12:35:57.678Z,28.30
2018-07-08T12:38:27.623Z,28.40
2018-07-08T12:40:57.561Z,28.50
2018-07-08T12:43:27.486Z,28.70
2018-07-08T12:45:57.658Z,28.70
2018-07-08T12:48:27.595Z,28.50
2018-07-08T12:50:57.532Z,28.50
2018-07-08T12:53:27.478Z,28.20
2018-07-08T12:55:57.459Z,28.40
2018-07-08T12:58:27.562Z,28.40
2018-07-08T13:00:57.502Z,28.40
2018-07-08T13:03:27.443Z,28.40
2018-07-08T13:05:57.474Z,28.60
2018-07-08T13:08:27.418Z,28.80
2018-07-08T13:10:57.370Z,28.80
2018-07-08T13:13:27.294Z,28.90
2018-07-08T13:15:57.231Z,28.90
2018-07-08T13:18:27.163Z,29.10
2018-07-08T13:20:57.107Z,29.20
2018-07-08T13:23:27.036Z,29.10
2018-07-08T13:25:57.282Z,29.20
2018-07-08T13:28:27.194Z,29.20
2018-07-08T13:30:57.159Z,29.40
2018-07-08T13:33:27.169Z,29.50
2018-07-08T13:35:57.095Z,29.40
2018-07-08T13:38:27.078Z,29.50
2018-07-08T13:40:57.046Z,29.20
2018-07-08T13:43:26.998Z,29.10
2018-07-08T13:45:57.016Z,29.30
2018-07-08T13:48:26.938Z,29.40
2018-07-08T13:50:56.903Z,29.50
2018-07-08T13:53:26.862Z,29.40
2018-07-08T13:55:56.852Z,29.50
2018-07-08T13:58:26.790Z,29.20
2018-07-08T14:00:56.746Z,29.20
2018-07-08T14:03:26.682Z,29.30
2018-07-08T14:05:56.675Z,29.40
2018-07-08T14:08:26.632Z,29.60
2018-07-08T14:10:56.559Z,29.60
2018-07-08T14:13:26.490Z,29.40
2018-07-08T14:15:56.434Z,29.00
2018-07-08T14:18:26.365Z,29.00
2018-07-08T14:20:56.295Z,29.10
2018-07-08T14:23:26.220Z,29.10
2018-07-08T14:25:56.154Z,29.10
2018-07-08T14:28:26.354Z,29.10
2018-07-08T14:30:56.415Z,29.30
2018-07-08T14:33:26.395Z,29.40
2018-07-08T14:35:56.307Z,29.20
2018-07-08T14:38:26.345Z,29.10
2018-07-08T14:40:56.279Z,28.90
2018-07-08T14:43:26.220Z,28.90
2018-07-08T14:45:56.161Z,29.00
2018-07-08T14:48:26.075Z,29.00
2018-07-08T14:50:56.004Z,29.00
2018-07-08T14:53:25.930Z,29.30
2018-07-08T14:55:55.866Z,29.30
2018-07-08T14:58:25.804Z,29.30
2018-07-08T15:00:55.729Z,29.50
2018-07-08T15:03:25.659Z,29.60
2018-07-08T15:05:55.599Z,29.50
2018-07-08T15:08:25.639Z,29.60
2018-07-08T15:10:55.680Z,29.60
2018-07-08T15:13:25.603Z,29.20
2018-07-08T15:15:55.656Z,28.80
2018-07-08T15:18:25.527Z,28.90
2018-07-08T15:20:55.643Z,28.90
2018-07-08T15:23:25.491Z,28.70
2018-07-08T15:25:55.423Z,28.90
2018-07-08T15:28:25.380Z,28.80
2018-07-08T15:30:55.516Z,29.10
2018-07-08T15:33:25.447Z,29.00
2018-07-08T15:35:55.427Z,29.10
2018-07-08T15:38:25.348Z,29.10
2018-07-08T15:40:55.295Z,29.30
2018-07-08T15:43:25.219Z,29.30
2018-07-08T15:45:55.170Z,29.20
2018-07-08T15:48:25.090Z,29.00
2018-07-08T15:50:55.106Z,29.10
2018-07-08T15:53:25.051Z,29.10
2018-07-08T15:55:55.047Z,29.20
2018-07-08T15:58:24.977Z,29.00
2018-07-08T16:00:54.902Z,29.00
2018-07-08T16:03:24.820Z,28.80
2018-07-08T16:05:54.767Z,28.90
2018-07-08T16:08:24.662Z,28.80
2018-07-08T16:10:54.635Z,28.70
2018-07-08T16:13:24.554Z,28.90
2018-07-08T16:15:54.498Z,29.00
2018-07-08T16:18:24.569Z,28.80
2018-07-08T16:20:54.571Z,28.70
2018-07-08T16:23:24.506Z,28.80
2018-07-08T16:25:54.464Z,28.80
2018-07-08T16:28:24.362Z,28.90
2018-07-08T16:30:54.510Z,29.10
2018-07-08T16:33:24.503Z,28.80
2018-07-08T16:35:56.970Z,28.70
2018-07-08T16:38:26.914Z,28.80
2018-07-08T16:40:56.955Z,28.90
2018-07-08T16:43:26.999Z,29.00
2018-07-08T16:45:56.913Z,29.40
2018-07-08T16:48:26.844Z,29.70
2018-07-08T16:53:26.342Z,31.00
2018-07-08T16:55:56.258Z,31.30
2018-07-08T16:58:26.210Z,31.30
2018-07-08T17:00:56.126Z,31.40
2018-07-08T17:03:26.151Z,31.50
2018-07-08T17:05:56.067Z,31.50
2018-07-08T17:08:26.040Z,31.80
2018-07-08T17:10:55.964Z,31.70
2018-07-08T17:13:25.903Z,31.60
2018-07-08T17:15:55.974Z,31.50
2018-07-08T17:18:25.923Z,31.50
2018-07-08T17:20:55.841Z,31.50
2018-07-08T17:23:25.860Z,31.80
2018-07-08T17:25:55.698Z,31.60
2018-07-08T17:28:25.636Z,31.40
2018-07-08T17:30:55.678Z,31.00
2018-07-08T17:33:25.644Z,30.00
2018-07-08T17:35:55.562Z,29.10
2018-07-08T17:38:25.491Z,28.00
2018-07-08T17:40:55.432Z,27.50
2018-07-08T17:43:25.478Z,27.00
2018-07-08T17:45:55.401Z,26.60
2018-07-08T17:48:25.326Z,26.10
2018-07-08T17:50:55.261Z,26.10
2018-07-08T17:53:25.190Z,25.80
2018-07-08T17:55:55.113Z,25.50
2018-07-08T17:58:25.203Z,25.30
2018-07-08T18:00:55.131Z,25.00
2018-07-08T18:03:25.138Z,24.90
2018-07-08T18:05:55.002Z,24.80
2018-07-08T18:08:24.982Z,24.60
2018-07-08T18:10:54.908Z,24.20
2018-07-08T18:13:24.838Z,24.00
2018-07-08T18:15:54.749Z,23.80
2018-07-08T18:18:24.695Z,23.70
2018-07-08T18:20:54.722Z,23.50
2018-07-08T18:23:24.696Z,23.30
2018-07-08T18:25:54.619Z,23.00
2018-07-08T18:28:24.682Z,23.00
2018-07-08T18:30:54.595Z,22.80
2018-07-08T18:33:24.555Z,22.70
2018-07-08T18:35:54.454Z,22.60
2018-07-08T18:38:24.393Z,22.40
2018-07-08T18:40:54.327Z,22.20
2018-07-08T18:43:24.471Z,22.10
2018-07-08T18:45:54.745Z,21.90
2018-07-08T18:48:24.963Z,21.70
2018-07-08T18:50:54.939Z,21.60
2018-07-08T18:53:24.904Z,21.40
2018-07-08T18:55:54.811Z,21.30
2018-07-08T18:58:24.867Z,21.20
2018-07-08T19:00:55.199Z,21.10
2018-07-08T19:03:25.548Z,20.90
2018-07-08T19:05:55.915Z,20.80
2018-07-08T19:08:25.966Z,20.60
2018-07-08T19:10:55.934Z,20.50
2018-07-08T19:13:25.862Z,20.30
2018-07-08T19:15:55.823Z,20.20
2018-07-08T19:18:25.826Z,20.20
2018-07-08T19:20:55.946Z,20.00
2018-07-08T19:23:25.940Z,19.90
2018-07-08T19:25:55.985Z,19.70
2018-07-08T19:28:26.352Z,19.60
2018-07-08T19:30:56.420Z,19.50
2018-07-08T19:33:26.531Z,19.40
2018-07-08T19:35:56.541Z,19.30
2018-07-08T19:38:26.566Z,19.20
2018-07-08T19:40:56.491Z,19.10
2018-07-08T19:43:26.507Z,18.90
2018-07-08T19:45:56.532Z,18.90
2018-07-08T19:48:26.761Z,18.80
2018-07-08T19:50:56.850Z,18.70
2018-07-08T19:53:26.889Z,18.60
2018-07-08T19:55:56.951Z,18.60
2018-07-08T19:58:27.230Z,18.60
2018-07-08T20:00:57.149Z,18.50
2018-07-08T20:03:27.106Z,18.50
2018-07-08T20:05:57.022Z,18.50
2018-07-08T20:08:26.954Z,18.40
2018-07-08T20:10:56.907Z,18.30
2018-07-08T20:13:26.918Z,18.20
2018-07-08T20:15:56.855Z,18.10
2018-07-08T20:18:26.837Z,18.00
2018-07-08T20:20:56.887Z,17.90
2018-07-08T20:23:26.889Z,17.80
2018-07-08T20:25:57.046Z,17.70
2018-07-08T20:28:27.017Z,17.70
2018-07-08T20:30:57.164Z,17.60
2018-07-08T20:33:27.087Z,17.50
2018-07-08T20:35:57.147Z,17.40
2018-07-08T20:38:27.070Z,17.40
2018-07-08T20:40:57.003Z,17.40
2018-07-08T20:43:26.936Z,17.40
2018-07-08T20:45:56.868Z,17.30
2018-07-08T20:48:26.790Z,17.40
2018-07-08T20:50:56.723Z,17.30
2018-07-08T20:53:26.978Z,17.40
2018-07-08T20:55:57.059Z,17.40
2018-07-08T20:58:27.003Z,17.40
2018-07-08T21:00:56.966Z,17.40
2018-07-08T21:03:27.071Z,17.40
2018-07-08T21:05:57.156Z,17.30
2018-07-08T21:08:27.242Z,17.20
2018-07-08T21:10:57.164Z,17.20
2018-07-08T21:13:27.554Z,17.10
2018-07-08T21:15:57.526Z,17.00
2018-07-08T21:18:27.535Z,17.00
2018-07-08T21:20:57.464Z,16.90
2018-07-08T21:23:27.433Z,16.80
2018-07-08T21:25:57.427Z,16.70
2018-07-08T21:28:27.350Z,16.70
2018-07-08T21:30:57.286Z,16.60
2018-07-08T21:33:27.531Z,16.60
2018-07-08T21:35:57.446Z,16.50
2018-07-08T21:38:28.758Z,16.50
2018-07-08T21:40:58.766Z,16.50
2018-07-08T21:43:28.699Z,16.40
2018-07-08T21:45:58.614Z,16.40
2018-07-08T21:48:28.527Z,16.40
2018-07-08T21:50:58.455Z,16.40
2018-07-08T21:53:28.363Z,16.40
2018-07-08T21:55:58.282Z,16.40
2018-07-08T21:58:28.244Z,16.30
2018-07-08T22:01:15.889Z,16.30
2018-07-08T22:03:47.334Z,16.20
2018-07-08T22:06:17.839Z,16.20
2018-07-08T22:08:47.766Z,16.10
2018-07-08T22:11:17.842Z,16.00
2018-07-08T22:13:47.723Z,16.00
2018-07-08T22:16:17.753Z,16.00
2018-07-08T22:18:47.747Z,16.00
2018-07-08T22:21:17.694Z,16.00
2018-07-08T22:23:47.611Z,16.00
2018-07-08T22:26:17.535Z,16.00
2018-07-08T22:28:47.586Z,16.00
2018-07-08T22:31:17.527Z,16.10
2018-07-08T22:33:47.537Z,16.10
2018-07-08T22:36:17.478Z,16.10
2018-07-08T22:38:47.389Z,16.00
2018-07-08T22:41:17.320Z,16.00
2018-07-08T22:43:47.275Z,16.00
2018-07-08T22:46:17.211Z,15.90
2018-07-08T22:48:47.130Z,15.90
2018-07-08T22:51:17.067Z,15.80
2018-07-08T22:53:47.620Z,15.80
2018-07-08T22:56:17.603Z,15.80
2018-07-08T22:58:47.535Z,15.70
2018-07-08T23:01:34.423Z,15.70
2018-07-08T23:04:04.327Z,15.70
2018-07-08T23:06:35.174Z,15.60
2018-07-08T23:09:06.218Z,15.50
2018-07-08T23:11:36.158Z,15.60
2018-07-08T23:14:06.087Z,15.50
2018-07-08T23:16:36.030Z,15.50
2018-07-08T23:19:05.958Z,15.40
2018-07-08T23:24:05.534Z,15.30
2018-07-08T23:26:35.459Z,15.30
2018-07-08T23:29:05.391Z,15.30
2018-07-08T23:31:35.375Z,15.30
2018-07-08T23:34:05.299Z,15.30
2018-07-08T23:36:35.232Z,15.30
2018-07-08T23:39:05.584Z,15.20
2018-07-08T23:41:35.517Z,15.20
2018-07-08T23:44:05.459Z,15.20
2018-07-08T23:46:35.378Z,15.20
2018-07-08T23:49:05.302Z,15.20
2018-07-08T23:51:35.232Z,15.20
2018-07-08T23:54:05.262Z,15.20
2018-07-08T23:56:35.187Z,15.20
2018-07-08T23:59:05.158Z,15.20
